Gulbeniz A — TCZK8 — position and weather

sailwx.info

Track history (hours):
 
Tides and Currents Weather Stations Pressure Air Temp Water Temp Dewpoint Dewpoint Depression Visibility Wind Speed Wind Dir Waves Ship Positions

Gulbeniz A

Last reported at 2016-May-23 17:16 UTC. Time now 2016-May-28 22:10 UTC.
Position N 12°55' W 017°45'.

Length 210 m; draft 10 m.

Type: Cargo ship. MMSI: 271042493.

Date/timePositionNaut miles runAvg speedWind from/ knotsBaromVisibWave heightAir tempDewpointWater temp
2016-May-23 17:16N 12°55' W 017°45'1014.2
2016-May-23 16:33N 13°05' W 017°43'2914.1
2016-May-23 14:31N 13°33' W 017°37'1313.9
2016-May-23 13:34N 13°46' W 017°34'1614.5
2016-May-23 12:29N 14°01' W 017°29'1314.2
2016-May-23 11:33N 14°14' W 017°26'1414.3
2016-May-23 10:33N 14°28' W 017°23'1312.7
2016-May-23 09:33N 14°41' W 017°24'2 2.0
2016-May-23 08:33N 14°41' W 017°26'0 0.0
2016-May-23 07:33N 14°41' W 017°26'0 0.0
2016-May-23 06:33N 14°41' W 017°26'0 0.0
2016-May-23 05:30N 14°41' W 017°26'0 0.0
2016-May-23 04:27N 14°41' W 017°26'0 0.0
2016-May-23 03:15N 14°41' W 017°26'0 0.0
2016-May-23 02:33N 14°41' W 017°26'0 0.0
2016-May-23 01:21N 14°41' W 017°26'0 0.0
2016-May-23 00:30N 14°41' W 017°26'0 0.0
2016-May-22 23:24N 14°41' W 017°26'0 0.3
2016-May-22 22:33N 14°41' W 017°26'3 3.4
2016-May-22 21:33N 14°39' W 017°23'2 2.3
2016-May-22 20:33N 14°37' W 017°23'1 1.0
2016-May-22 19:33N 14°36' W 017°23'4210.4
2016-May-22 15:34N 15°15' W 017°40'1615.5
2016-May-22 14:33N 15°30' W 017°40'  
2016-May-20 08:33N 28°07' W 013°51'1615.7
2016-May-20 07:31N 28°19' W 013°39'1715.7
2016-May-20 06:25N 28°33' W 013°26'13710.6
2016-May-19 17:31N 30°23' W 011°52'46313.2
2016-May-18 06:24N 35°59' W 005°31'1011.7
2016-May-18 05:33N 36°07' W 005°24'2 0.1
2016-May-17 17:24N 36°08' W 005°25'0 0.0
2016-May-17 16:30N 36°08' W 005°25'0 0.0
2016-May-17 15:27N 36°08' W 005°25'0 0.0
2016-May-17 14:29N 36°08' W 005°25'0 0.0
2016-May-17 13:29N 36°08' W 005°25'0 0.0
2016-May-17 12:32N 36°08' W 005°25'0 0.0
2016-May-17 11:32N 36°08' W 005°25'0 0.0
2016-May-17 10:32N 36°08' W 005°25'0 0.0
2016-May-17 09:32N 36°08' W 005°25'0 0.0
2016-May-17 08:32N 36°08' W 005°25'0 0.0
2016-May-17 07:32N 36°08' W 005°25'1 1.4
2016-May-17 06:32N 36°08' W 005°24'5 4.8
2016-May-17 05:33N 36°04' W 005°20'2 1.7
2016-May-17 04:33N 36°04' W 005°22'4 3.5
2016-May-17 03:33N 36°01' W 005°23'3 0.3
2016-May-16 15:11N 36°00' W 005°27'5 7.6
2016-May-16 14:31N 36°05' W 005°24'0 0.2
2016-May-16 13:32N 36°05' W 005°24'0 0.0
2016-May-16 12:19N 36°05' W 005°24'0 0.1
2016-May-16 11:07N 36°05' W 005°24'0 0.0
2016-May-16 10:31N 36°05' W 005°24'0 0.0
2016-May-16 07:04N 36°05' W 005°24'0 0.2
2016-May-16 06:31N 36°05' W 005°24'0 0.1
2016-May-16 05:28N 36°05' W 005°24'0 0.1
2016-May-16 04:31N 36°05' W 005°24'0 0.1
2016-May-16 03:31N 36°05' W 005°24'0 0.1
2016-May-16 02:28N 36°05' W 005°24'0 0.1
2016-May-16 01:31N 36°05' W 005°24'0 0.0
2016-May-16 00:28N 36°05' W 005°24'0 0.0
2016-May-15 23:32N 36°05' W 005°24'0 0.0
2016-May-15 22:31N 36°05' W 005°24'0 0.0
2016-May-15 21:28N 36°05' W 005°24'0 0.0
2016-May-15 20:28N 36°05' W 005°24'0 0.0
2016-May-15 19:28N 36°05' W 005°24'0 0.1
2016-May-15 18:31N 36°05' W 005°24'0 0.1
2016-May-15 17:22N 36°05' W 005°24'0 0.1
2016-May-15 16:33N 36°05' W 005°24'4 2.6
2016-May-15 15:13N 36°04' W 005°19'1 2.1
2016-May-15 14:31N 36°03' W 005°18'21013.0
2016-May-14 22:21N 37°09' W 001°10'1114.0
2016-May-14 21:33N 37°17' W 000°59'1414.2
2016-May-14 20:32N 37°26' W 000°45'1313.6
2016-May-14 19:34N 37°35' W 000°33'1413.7
2016-May-14 18:33N 37°46' W 000°22'1313.2
2016-May-14 17:33N 37°57' W 000°14'1412.9
2016-May-14 16:30N 38°09' W 000°05'12513.9
2016-May-14 07:28N 40°05' E 000°56'1314.3
2016-May-14 06:32N 40°18' E 000°59'1614.8
2016-May-14 05:27N 40°34' E 001°04'33 3.6
2016-May-13 20:25N 41°06' E 001°13'0 0.0
2016-May-13 19:31N 41°06' E 001°13'0 0.0
2016-May-13 18:31N 41°06' E 001°13'1 1.1
2016-May-13 17:33N 41°05' E 001°13'  
Track history (hours):
 
Tides and Currents Weather Stations Pressure Air Temp Water Temp Dewpoint Dewpoint Depression Visibility Wind Speed Wind Dir Waves Ship Positions

Gulbeniz A

Last reported at 2016-May-23 17:16 UTC. Time now 2016-May-28 22:10 UTC.
Position N 12°55' W 017°45'.

Length 210 m; draft 10 m.

Type: Cargo ship. MMSI: 271042493.

Date/timePositionNaut miles runAvg speedWind from/ knotsBaromVisibWave heightAir tempDewpointWater temp
2016-May-23 17:16N 12°55' W 017°45'1014.2
2016-May-23 16:33N 13°05' W 017°43'2914.1
2016-May-23 14:31N 13°33' W 017°37'1313.9
2016-May-23 13:34N 13°46' W 017°34'1614.5
2016-May-23 12:29N 14°01' W 017°29'1314.2
2016-May-23 11:33N 14°14' W 017°26'1414.3
2016-May-23 10:33N 14°28' W 017°23'1312.7
2016-May-23 09:33N 14°41' W 017°24'2 2.0
2016-May-23 08:33N 14°41' W 017°26'0 0.0
2016-May-23 07:33N 14°41' W 017°26'0 0.0
2016-May-23 06:33N 14°41' W 017°26'0 0.0
2016-May-23 05:30N 14°41' W 017°26'0 0.0
2016-May-23 04:27N 14°41' W 017°26'0 0.0
2016-May-23 03:15N 14°41' W 017°26'0 0.0
2016-May-23 02:33N 14°41' W 017°26'0 0.0
2016-May-23 01:21N 14°41' W 017°26'0 0.0
2016-May-23 00:30N 14°41' W 017°26'0 0.0
2016-May-22 23:24N 14°41' W 017°26'0 0.3
2016-May-22 22:33N 14°41' W 017°26'3 3.4
2016-May-22 21:33N 14°39' W 017°23'2 2.3
2016-May-22 20:33N 14°37' W 017°23'1 1.0
2016-May-22 19:33N 14°36' W 017°23'4210.4
2016-May-22 15:34N 15°15' W 017°40'1615.5
2016-May-22 14:33N 15°30' W 017°40'  
2016-May-20 08:33N 28°07' W 013°51'1615.7
2016-May-20 07:31N 28°19' W 013°39'1715.7
2016-May-20 06:25N 28°33' W 013°26'13710.6
2016-May-19 17:31N 30°23' W 011°52'46313.2
2016-May-18 06:24N 35°59' W 005°31'1011.7
2016-May-18 05:33N 36°07' W 005°24'2 0.1
2016-May-17 17:24N 36°08' W 005°25'0 0.0
2016-May-17 16:30N 36°08' W 005°25'0 0.0
2016-May-17 15:27N 36°08' W 005°25'0 0.0
2016-May-17 14:29N 36°08' W 005°25'0 0.0
2016-May-17 13:29N 36°08' W 005°25'0 0.0
2016-May-17 12:32N 36°08' W 005°25'0 0.0
2016-May-17 11:32N 36°08' W 005°25'0 0.0
2016-May-17 10:32N 36°08' W 005°25'0 0.0
2016-May-17 09:32N 36°08' W 005°25'0 0.0
2016-May-17 08:32N 36°08' W 005°25'0 0.0
2016-May-17 07:32N 36°08' W 005°25'1 1.4
2016-May-17 06:32N 36°08' W 005°24'5 4.8
2016-May-17 05:33N 36°04' W 005°20'2 1.7
2016-May-17 04:33N 36°04' W 005°22'4 3.5
2016-May-17 03:33N 36°01' W 005°23'3 0.3
2016-May-16 15:11N 36°00' W 005°27'5 7.6
2016-May-16 14:31N 36°05' W 005°24'0 0.2
2016-May-16 13:32N 36°05' W 005°24'0 0.0
2016-May-16 12:19N 36°05' W 005°24'0 0.1
2016-May-16 11:07N 36°05' W 005°24'0 0.0
2016-May-16 10:31N 36°05' W 005°24'0 0.0
2016-May-16 07:04N 36°05' W 005°24'0 0.2
2016-May-16 06:31N 36°05' W 005°24'0 0.1
2016-May-16 05:28N 36°05' W 005°24'0 0.1
2016-May-16 04:31N 36°05' W 005°24'0 0.1
2016-May-16 03:31N 36°05' W 005°24'0 0.1
2016-May-16 02:28N 36°05' W 005°24'0 0.1
2016-May-16 01:31N 36°05' W 005°24'0 0.0
2016-May-16 00:28N 36°05' W 005°24'0 0.0
2016-May-15 23:32N 36°05' W 005°24'0 0.0
2016-May-15 22:31N 36°05' W 005°24'0 0.0
2016-May-15 21:28N 36°05' W 005°24'0 0.0
2016-May-15 20:28N 36°05' W 005°24'0 0.0
2016-May-15 19:28N 36°05' W 005°24'0 0.1
2016-May-15 18:31N 36°05' W 005°24'0 0.1
2016-May-15 17:22N 36°05' W 005°24'0 0.1
2016-May-15 16:33N 36°05' W 005°24'4 2.6
2016-May-15 15:13N 36°04' W 005°19'1 2.1
2016-May-15 14:31N 36°03' W 005°18'21013.0
2016-May-14 22:21N 37°09' W 001°10'1114.0
2016-May-14 21:33N 37°17' W 000°59'1414.2
2016-May-14 20:32N 37°26' W 000°45'1313.6
2016-May-14 19:34N 37°35' W 000°33'1413.7
2016-May-14 18:33N 37°46' W 000°22'1313.2
2016-May-14 17:33N 37°57' W 000°14'1412.9
2016-May-14 16:30N 38°09' W 000°05'12513.9
2016-May-14 07:28N 40°05' E 000°56'1314.3
2016-May-14 06:32N 40°18' E 000°59'1614.8
2016-May-14 05:27N 40°34' E 001°04'33 3.6
2016-May-13 20:25N 41°06' E 001°13'0 0.0
2016-May-13 19:31N 41°06' E 001°13'0 0.0
2016-May-13 18:31N 41°06' E 001°13'1 1.1
2016-May-13 17:33N 41°05' E 001°13'  

Dump ship's entire track history